sensor_id;sensor_type;location;lat;lon;timestamp;P1;durP1;ratioP1;P2;durP2;ratioP2
16286;SDS011;8251;53.568;10.018;2022-09-09T00:01:40;26.63;;;17.33;;
16286;SDS011;8251;53.568;10.018;2022-09-09T00:04:18;21.87;;;14.93;;
16286;SDS011;8251;53.568;10.018;2022-09-09T00:06:55;28.97;;;18.17;;
16286;SDS011;8251;53.568;10.018;2022-09-09T00:09:30;30.63;;;17.63;;
16286;SDS011;8251;53.568;10.018;2022-09-09T00:12:05;33.93;;;19.93;;
16286;SDS011;8251;53.568;10.018;2022-09-09T00:14:39;29.57;;;18.63;;
16286;SDS011;8251;53.568;10.018;2022-09-09T00:17:17;32.23;;;18.17;;
16286;SDS011;8251;53.568;10.018;2022-09-09T00:19:58;31.20;;;17.80;;
16286;SDS011;8251;53.568;10.018;2022-09-09T00:22:29;42.33;;;19.03;;
16286;SDS011;8251;53.568;10.018;2022-09-09T00:24:58;33.93;;;19.27;;
16286;SDS011;8251;53.568;10.018;2022-09-09T00:27:37;32.33;;;18.80;;
16286;SDS011;8251;53.568;10.018;2022-09-09T00:30:14;39.43;;;20.67;;
16286;SDS011;8251;53.568;10.018;2022-09-09T00:32:45;35.43;;;19.93;;
16286;SDS011;8251;53.568;10.018;2022-09-09T00:35:15;34.37;;;18.47;;
16286;SDS011;8251;53.568;10.018;2022-09-09T00:37:47;38.80;;;20.77;;
16286;SDS011;8251;53.568;10.018;2022-09-09T00:40:20;36.33;;;18.43;;
16286;SDS011;8251;53.568;10.018;2022-09-09T00:42:52;28.60;;;17.47;;
16286;SDS011;8251;53.568;10.018;2022-09-09T00:45:47;33.30;;;18.63;;
16286;SDS011;8251;53.568;10.018;2022-09-09T00:48:39;36.20;;;19.13;;
16286;SDS011;8251;53.568;10.018;2022-09-09T00:51:17;32.87;;;18.70;;
16286;SDS011;8251;53.568;10.018;2022-09-09T00:53:58;39.23;;;20.00;;
16286;SDS011;8251;53.568;10.018;2022-09-09T00:56:41;39.60;;;20.43;;
16286;SDS011;8251;53.568;10.018;2022-09-09T00:59:15;39.40;;;21.00;;
16286;SDS011;8251;53.568;10.018;2022-09-09T01:01:54;40.43;;;20.83;;
16286;SDS011;8251;53.568;10.018;2022-09-09T01:04:23;37.17;;;20.40;;
16286;SDS011;8251;53.568;10.018;2022-09-09T01:06:57;40.67;;;19.60;;
16286;SDS011;8251;53.568;10.018;2022-09-09T01:09:30;40.30;;;20.73;;
16286;SDS011;8251;53.568;10.018;2022-09-09T01:12:07;35.80;;;17.83;;
16286;SDS011;8251;53.568;10.018;2022-09-09T01:14:40;39.97;;;18.53;;
16286;SDS011;8251;53.568;10.018;2022-09-09T01:17:14;33.57;;;17.50;;
16286;SDS011;8251;53.568;10.018;2022-09-09T01:19:55;30.77;;;17.53;;
16286;SDS011;8251;53.568;10.018;2022-09-09T01:22:32;30.00;;;17.07;;
16286;SDS011;8251;53.568;10.018;2022-09-09T01:27:55;31.23;;;17.03;;
16286;SDS011;8251;53.568;10.018;2022-09-09T01:30:25;26.63;;;15.77;;
16286;SDS011;8251;53.568;10.018;2022-09-09T01:32:54;31.77;;;17.47;;
16286;SDS011;8251;53.568;10.018;2022-09-09T01:35:29;30.80;;;16.53;;
16286;SDS011;8251;53.568;10.018;2022-09-09T01:38:02;28.70;;;17.37;;
16286;SDS011;8251;53.568;10.018;2022-09-09T01:40:29;29.20;;;17.20;;
16286;SDS011;8251;53.568;10.018;2022-09-09T01:42:57;24.87;;;15.83;;
16286;SDS011;8251;53.568;10.018;2022-09-09T01:45:24;26.07;;;17.23;;
16286;SDS011;8251;53.568;10.018;2022-09-09T01:47:51;28.30;;;16.23;;
16286;SDS011;8251;53.568;10.018;2022-09-09T01:50:19;26.40;;;16.90;;
16286;SDS011;8251;53.568;10.018;2022-09-09T01:52:48;30.93;;;17.40;;
16286;SDS011;8251;53.568;10.018;2022-09-09T01:55:18;27.03;;;15.77;;
16286;SDS011;8251;53.568;10.018;2022-09-09T01:57:56;31.40;;;17.63;;
16286;SDS011;8251;53.568;10.018;2022-09-09T02:00:36;32.33;;;17.50;;
16286;SDS011;8251;53.568;10.018;2022-09-09T02:03:11;34.40;;;18.97;;
16286;SDS011;8251;53.568;10.018;2022-09-09T02:05:48;31.33;;;17.97;;
16286;SDS011;8251;53.568;10.018;2022-09-09T02:08:23;32.57;;;19.00;;
16286;SDS011;8251;53.568;10.018;2022-09-09T02:10:54;34.27;;;18.40;;
16286;SDS011;8251;53.568;10.018;2022-09-09T02:13:27;31.60;;;18.30;;
16286;SDS011;8251;53.568;10.018;2022-09-09T02:15:55;35.30;;;18.17;;
16286;SDS011;8251;53.568;10.018;2022-09-09T02:18:27;32.20;;;18.17;;
16286;SDS011;8251;53.568;10.018;2022-09-09T02:20:58;28.57;;;17.30;;
16286;SDS011;8251;53.568;10.018;2022-09-09T02:23:26;33.03;;;18.70;;
16286;SDS011;8251;53.568;10.018;2022-09-09T02:25:54;34.43;;;18.17;;
16286;SDS011;8251;53.568;10.018;2022-09-09T02:28:25;35.17;;;16.97;;
16286;SDS011;8251;53.568;10.018;2022-09-09T02:30:55;27.30;;;16.50;;
16286;SDS011;8251;53.568;10.018;2022-09-09T02:33:24;31.97;;;17.13;;
16286;SDS011;8251;53.568;10.018;2022-09-09T02:35:53;33.40;;;18.60;;
16286;SDS011;8251;53.568;10.018;2022-09-09T02:38:26;30.70;;;16.40;;
16286;SDS011;8251;53.568;10.018;2022-09-09T02:40:57;30.43;;;16.30;;
16286;SDS011;8251;53.568;10.018;2022-09-09T02:43:24;29.13;;;17.17;;
16286;SDS011;8251;53.568;10.018;2022-09-09T02:45:55;38.80;;;15.83;;
16286;SDS011;8251;53.568;10.018;2022-09-09T02:48:30;30.50;;;17.03;;
16286;SDS011;8251;53.568;10.018;2022-09-09T02:51:10;27.67;;;16.00;;
16286;SDS011;8251;53.568;10.018;2022-09-09T02:53:47;27.10;;;15.27;;
16286;SDS011;8251;53.568;10.018;2022-09-09T02:56:19;31.30;;;16.47;;
16286;SDS011;8251;53.568;10.018;2022-09-09T02:58:49;27.23;;;14.83;;
16286;SDS011;8251;53.568;10.018;2022-09-09T03:01:18;24.23;;;14.20;;
16286;SDS011;8251;53.568;10.018;2022-09-09T03:03:45;30.23;;;16.03;;
16286;SDS011;8251;53.568;10.018;2022-09-09T03:06:12;24.23;;;15.37;;
16286;SDS011;8251;53.568;10.018;2022-09-09T03:08:39;23.90;;;15.17;;
16286;SDS011;8251;53.568;10.018;2022-09-09T03:11:07;27.47;;;14.77;;
16286;SDS011;8251;53.568;10.018;2022-09-09T03:13:34;30.63;;;15.70;;
16286;SDS011;8251;53.568;10.018;2022-09-09T03:16:03;27.23;;;15.23;;
16286;SDS011;8251;53.568;10.018;2022-09-09T03:18:31;26.70;;;15.33;;
16286;SDS011;8251;53.568;10.018;2022-09-09T03:20:59;23.50;;;14.97;;
16286;SDS011;8251;53.568;10.018;2022-09-09T03:23:26;26.90;;;14.33;;
16286;SDS011;8251;53.568;10.018;2022-09-09T03:25:53;24.93;;;14.63;;
16286;SDS011;8251;53.568;10.018;2022-09-09T03:28:23;28.73;;;14.97;;
16286;SDS011;8251;53.568;10.018;2022-09-09T03:30:57;24.40;;;14.40;;
16286;SDS011;8251;53.568;10.018;2022-09-09T03:33:25;26.70;;;15.97;;
16286;SDS011;8251;53.568;10.018;2022-09-09T03:35:54;26.23;;;14.93;;
16286;SDS011;8251;53.568;10.018;2022-09-09T03:38:22;28.40;;;15.57;;
16286;SDS011;8251;53.568;10.018;2022-09-09T03:40:49;27.20;;;14.53;;
16286;SDS011;8251;53.568;10.018;2022-09-09T03:43:20;26.30;;;14.90;;
16286;SDS011;8251;53.568;10.018;2022-09-09T03:45:47;30.70;;;15.27;;
16286;SDS011;8251;53.568;10.018;2022-09-09T03:48:14;27.47;;;14.23;;
16286;SDS011;8251;53.568;10.018;2022-09-09T03:50:44;23.67;;;15.30;;
16286;SDS011;8251;53.568;10.018;2022-09-09T03:53:13;24.07;;;13.73;;
16286;SDS011;8251;53.568;10.018;2022-09-09T03:55:43;28.93;;;15.17;;
16286;SDS011;8251;53.568;10.018;2022-09-09T03:58:10;28.70;;;15.90;;
16286;SDS011;8251;53.568;10.018;2022-09-09T04:00:38;20.43;;;12.63;;
16286;SDS011;8251;53.568;10.018;2022-09-09T04:03:07;23.27;;;13.67;;
16286;SDS011;8251;53.568;10.018;2022-09-09T04:05:34;21.37;;;12.73;;
16286;SDS011;8251;53.568;10.018;2022-09-09T04:08:04;26.00;;;14.03;;
16286;SDS011;8251;53.568;10.018;2022-09-09T04:10:33;24.50;;;12.87;;
16286;SDS011;8251;53.568;10.018;2022-09-09T04:13:02;23.63;;;14.27;;
16286;SDS011;8251;53.568;10.018;2022-09-09T04:15:29;21.57;;;12.93;;
16286;SDS011;8251;53.568;10.018;2022-09-09T04:17:56;23.33;;;13.07;;
16286;SDS011;8251;53.568;10.018;2022-09-09T04:20:23;23.97;;;13.03;;
16286;SDS011;8251;53.568;10.018;2022-09-09T04:22:50;22.40;;;13.00;;
16286;SDS011;8251;53.568;10.018;2022-09-09T04:25:17;19.90;;;12.77;;
16286;SDS011;8251;53.568;10.018;2022-09-09T04:27:45;18.80;;;11.67;;
16286;SDS011;8251;53.568;10.018;2022-09-09T04:30:12;17.87;;;11.90;;
16286;SDS011;8251;53.568;10.018;2022-09-09T04:32:39;21.87;;;11.17;;
16286;SDS011;8251;53.568;10.018;2022-09-09T04:35:06;17.97;;;12.10;;
16286;SDS011;8251;53.568;10.018;2022-09-09T04:37:33;17.60;;;11.63;;
16286;SDS011;8251;53.568;10.018;2022-09-09T04:40:01;14.23;;;11.00;;
16286;SDS011;8251;53.568;10.018;2022-09-09T04:42:28;17.67;;;10.63;;
16286;SDS011;8251;53.568;10.018;2022-09-09T04:44:56;17.97;;;10.33;;
16286;SDS011;8251;53.568;10.018;2022-09-09T04:47:23;17.23;;;11.47;;
16286;SDS011;8251;53.568;10.018;2022-09-09T04:49:51;14.67;;;10.50;;
16286;SDS011;8251;53.568;10.018;2022-09-09T04:52:19;15.20;;;9.57;;
16286;SDS011;8251;53.568;10.018;2022-09-09T04:54:46;14.73;;;9.77;;
16286;SDS011;8251;53.568;10.018;2022-09-09T04:57:13;15.20;;;10.20;;
16286;SDS011;8251;53.568;10.018;2022-09-09T04:59:40;14.50;;;9.60;;
16286;SDS011;8251;53.568;10.018;2022-09-09T05:02:08;17.80;;;10.57;;
16286;SDS011;8251;53.568;10.018;2022-09-09T05:04:35;14.83;;;9.50;;
16286;SDS011;8251;53.568;10.018;2022-09-09T05:07:02;13.03;;;8.63;;
16286;SDS011;8251;53.568;10.018;2022-09-09T05:09:30;10.67;;;8.67;;
16286;SDS011;8251;53.568;10.018;2022-09-09T05:11:57;11.17;;;8.73;;
16286;SDS011;8251;53.568;10.018;2022-09-09T05:14:24;12.67;;;9.40;;
16286;SDS011;8251;53.568;10.018;2022-09-09T05:16:51;13.07;;;9.50;;
16286;SDS011;8251;53.568;10.018;2022-09-09T05:19:19;9.57;;;7.93;;
16286;SDS011;8251;53.568;10.018;2022-09-09T05:21:46;16.47;;;9.67;;
16286;SDS011;8251;53.568;10.018;2022-09-09T05:24:14;16.27;;;8.23;;
16286;SDS011;8251;53.568;10.018;2022-09-09T05:26:41;14.20;;;8.93;;
16286;SDS011;8251;53.568;10.018;2022-09-09T05:29:10;13.77;;;7.90;;
16286;SDS011;8251;53.568;10.018;2022-09-09T05:31:45;11.80;;;8.23;;
16286;SDS011;8251;53.568;10.018;2022-09-09T05:34:20;10.40;;;7.73;;
16286;SDS011;8251;53.568;10.018;2022-09-09T05:36:47;11.80;;;8.80;;
16286;SDS011;8251;53.568;10.018;2022-09-09T05:39:14;12.63;;;8.77;;
16286;SDS011;8251;53.568;10.018;2022-09-09T05:41:41;13.63;;;9.10;;
16286;SDS011;8251;53.568;10.018;2022-09-09T05:44:08;13.90;;;9.57;;
16286;SDS011;8251;53.568;10.018;2022-09-09T05:46:35;14.97;;;8.27;;
16286;SDS011;8251;53.568;10.018;2022-09-09T05:49:02;16.00;;;8.67;;
16286;SDS011;8251;53.568;10.018;2022-09-09T05:51:32;16.20;;;9.57;;
16286;SDS011;8251;53.568;10.018;2022-09-09T05:53:59;9.60;;;7.77;;
16286;SDS011;8251;53.568;10.018;2022-09-09T05:56:26;11.73;;;7.73;;
16286;SDS011;8251;53.568;10.018;2022-09-09T05:58:55;9.30;;;7.40;;
16286;SDS011;8251;53.568;10.018;2022-09-09T06:01:23;12.13;;;7.13;;
16286;SDS011;8251;53.568;10.018;2022-09-09T06:03:52;11.60;;;7.10;;
16286;SDS011;8251;53.568;10.018;2022-09-09T06:06:20;10.27;;;7.83;;
16286;SDS011;8251;53.568;10.018;2022-09-09T06:08:51;8.37;;;7.03;;
16286;SDS011;8251;53.568;10.018;2022-09-09T06:11:22;14.07;;;7.17;;
16286;SDS011;8251;53.568;10.018;2022-09-09T06:13:59;10.03;;;6.70;;
16286;SDS011;8251;53.568;10.018;2022-09-09T06:16:34;11.20;;;6.20;;
16286;SDS011;8251;53.568;10.018;2022-09-09T06:19:04;7.93;;;6.20;;
16286;SDS011;8251;53.568;10.018;2022-09-09T06:21:36;8.83;;;6.13;;
16286;SDS011;8251;53.568;10.018;2022-09-09T06:24:09;12.57;;;5.50;;
16286;SDS011;8251;53.568;10.018;2022-09-09T06:26:39;8.87;;;5.77;;
16286;SDS011;8251;53.568;10.018;2022-09-09T06:29:07;6.80;;;5.53;;
16286;SDS011;8251;53.568;10.018;2022-09-09T06:31:35;9.30;;;5.17;;
16286;SDS011;8251;53.568;10.018;2022-09-09T06:34:04;11.53;;;6.77;;
16286;SDS011;8251;53.568;10.018;2022-09-09T06:36:33;10.30;;;5.50;;
16286;SDS011;8251;53.568;10.018;2022-09-09T06:39:01;10.40;;;5.20;;
16286;SDS011;8251;53.568;10.018;2022-09-09T06:41:30;10.13;;;5.20;;
16286;SDS011;8251;53.568;10.018;2022-09-09T06:43:59;6.10;;;4.70;;
16286;SDS011;8251;53.568;10.018;2022-09-09T06:46:26;9.20;;;4.90;;
16286;SDS011;8251;53.568;10.018;2022-09-09T06:48:55;9.13;;;5.40;;
16286;SDS011;8251;53.568;10.018;2022-09-09T06:51:26;7.97;;;4.80;;
16286;SDS011;8251;53.568;10.018;2022-09-09T06:53:55;6.77;;;4.63;;
16286;SDS011;8251;53.568;10.018;2022-09-09T06:56:24;11.63;;;4.90;;
16286;SDS011;8251;53.568;10.018;2022-09-09T06:58:54;6.53;;;4.57;;
16286;SDS011;8251;53.568;10.018;2022-09-09T07:01:23;5.70;;;4.67;;
16286;SDS011;8251;53.568;10.018;2022-09-09T07:03:52;6.67;;;4.17;;
16286;SDS011;8251;53.568;10.018;2022-09-09T07:06:21;9.23;;;4.07;;
16286;SDS011;8251;53.568;10.018;2022-09-09T07:08:50;8.20;;;4.10;;
16286;SDS011;8251;53.568;10.018;2022-09-09T07:11:18;6.97;;;4.70;;
16286;SDS011;8251;53.568;10.018;2022-09-09T07:13:46;6.53;;;4.10;;
16286;SDS011;8251;53.568;10.018;2022-09-09T07:16:15;7.40;;;4.20;;
16286;SDS011;8251;53.568;10.018;2022-09-09T07:18:45;7.97;;;4.20;;
16286;SDS011;8251;53.568;10.018;2022-09-09T07:21:13;5.33;;;4.07;;
16286;SDS011;8251;53.568;10.018;2022-09-09T07:23:41;9.07;;;4.53;;
16286;SDS011;8251;53.568;10.018;2022-09-09T07:26:08;9.20;;;4.73;;
16286;SDS011;8251;53.568;10.018;2022-09-09T07:28:36;7.20;;;5.17;;
16286;SDS011;8251;53.568;10.018;2022-09-09T07:31:03;5.97;;;4.47;;
16286;SDS011;8251;53.568;10.018;2022-09-09T07:33:34;6.03;;;3.87;;
16286;SDS011;8251;53.568;10.018;2022-09-09T07:36:02;7.53;;;3.40;;
16286;SDS011;8251;53.568;10.018;2022-09-09T07:38:32;4.90;;;3.50;;
16286;SDS011;8251;53.568;10.018;2022-09-09T07:41:03;5.77;;;3.23;;
16286;SDS011;8251;53.568;10.018;2022-09-09T07:43:31;5.07;;;3.30;;
16286;SDS011;8251;53.568;10.018;2022-09-09T07:45:58;5.33;;;3.70;;
16286;SDS011;8251;53.568;10.018;2022-09-09T07:48:26;9.00;;;4.53;;
16286;SDS011;8251;53.568;10.018;2022-09-09T07:51:03;7.67;;;4.80;;
16286;SDS011;8251;53.568;10.018;2022-09-09T07:53:35;4.87;;;3.90;;
16286;SDS011;8251;53.568;10.018;2022-09-09T07:56:03;5.13;;;3.37;;
16286;SDS011;8251;53.568;10.018;2022-09-09T07:58:32;4.53;;;3.80;;
16286;SDS011;8251;53.568;10.018;2022-09-09T08:00:59;6.20;;;3.63;;
16286;SDS011;8251;53.568;10.018;2022-09-09T08:03:26;5.77;;;3.53;;
16286;SDS011;8251;53.568;10.018;2022-09-09T08:05:59;6.97;;;3.83;;
16286;SDS011;8251;53.568;10.018;2022-09-09T08:08:29;8.33;;;4.97;;
16286;SDS011;8251;53.568;10.018;2022-09-09T08:11:01;5.27;;;3.60;;
16286;SDS011;8251;53.568;10.018;2022-09-09T08:13:35;4.37;;;3.33;;
16286;SDS011;8251;53.568;10.018;2022-09-09T08:16:06;6.47;;;3.90;;
16286;SDS011;8251;53.568;10.018;2022-09-09T08:18:34;7.93;;;4.47;;
16286;SDS011;8251;53.568;10.018;2022-09-09T08:21:09;3.83;;;3.10;;
16286;SDS011;8251;53.568;10.018;2022-09-09T08:23:39;4.70;;;3.43;;
16286;SDS011;8251;53.568;10.018;2022-09-09T08:26:10;4.33;;;3.13;;
16286;SDS011;8251;53.568;10.018;2022-09-09T08:28:38;4.93;;;2.87;;
16286;SDS011;8251;53.568;10.018;2022-09-09T08:31:09;3.90;;;3.03;;
16286;SDS011;8251;53.568;10.018;2022-09-09T08:33:39;4.77;;;3.20;;
16286;SDS011;8251;53.568;10.018;2022-09-09T08:36:13;7.93;;;3.60;;
16286;SDS011;8251;53.568;10.018;2022-09-09T08:38:49;4.83;;;3.60;;
16286;SDS011;8251;53.568;10.018;2022-09-09T08:44:06;12.07;;;8.33;;
16286;SDS011;8251;53.568;10.018;2022-09-09T08:46:39;7.30;;;4.73;;
16286;SDS011;8251;53.568;10.018;2022-09-09T08:49:17;5.43;;;3.80;;
16286;SDS011;8251;53.568;10.018;2022-09-09T08:51:57;4.33;;;2.93;;
16286;SDS011;8251;53.568;10.018;2022-09-09T08:54:26;4.20;;;3.20;;
16286;SDS011;8251;53.568;10.018;2022-09-09T08:57:01;6.67;;;3.50;;
16286;SDS011;8251;53.568;10.018;2022-09-09T08:59:28;7.80;;;4.17;;
16286;SDS011;8251;53.568;10.018;2022-09-09T09:01:58;6.00;;;3.30;;
16286;SDS011;8251;53.568;10.018;2022-09-09T09:04:44;5.87;;;2.93;;
16286;SDS011;8251;53.568;10.018;2022-09-09T09:07:24;4.73;;;3.13;;
16286;SDS011;8251;53.568;10.018;2022-09-09T09:10:03;4.10;;;3.30;;
16286;SDS011;8251;53.568;10.018;2022-09-09T09:12:37;5.07;;;3.10;;
16286;SDS011;8251;53.568;10.018;2022-09-09T09:15:09;7.07;;;2.97;;
16286;SDS011;8251;53.568;10.018;2022-09-09T09:17:42;4.77;;;3.37;;
16286;SDS011;8251;53.568;10.018;2022-09-09T09:20:13;5.33;;;2.97;;
16286;SDS011;8251;53.568;10.018;2022-09-09T09:22:44;3.07;;;2.47;;
16286;SDS011;8251;53.568;10.018;2022-09-09T09:25:18;3.27;;;2.60;;
16286;SDS011;8251;53.568;10.018;2022-09-09T09:27:49;10.40;;;2.93;;
16286;SDS011;8251;53.568;10.018;2022-09-09T09:30:25;7.30;;;2.83;;
16286;SDS011;8251;53.568;10.018;2022-09-09T09:32:56;13.20;;;9.43;;
16286;SDS011;8251;53.568;10.018;2022-09-09T09:35:27;4.53;;;2.10;;
16286;SDS011;8251;53.568;10.018;2022-09-09T09:37:54;6.63;;;2.40;;
16286;SDS011;8251;53.568;10.018;2022-09-09T09:40:23;4.00;;;2.03;;
16286;SDS011;8251;53.568;10.018;2022-09-09T09:42:51;8.33;;;2.10;;
16286;SDS011;8251;53.568;10.018;2022-09-09T09:45:26;4.63;;;2.23;;
16286;SDS011;8251;53.568;10.018;2022-09-09T09:47:58;5.20;;;2.03;;
16286;SDS011;8251;53.568;10.018;2022-09-09T09:50:27;3.17;;;2.10;;
16286;SDS011;8251;53.568;10.018;2022-09-09T09:52:55;3.70;;;2.03;;
16286;SDS011;8251;53.568;10.018;2022-09-09T09:55:24;8.00;;;1.93;;
16286;SDS011;8251;53.568;10.018;2022-09-09T09:57:52;7.13;;;2.40;;
16286;SDS011;8251;53.568;10.018;2022-09-09T10:00:20;3.23;;;1.80;;
16286;SDS011;8251;53.568;10.018;2022-09-09T10:02:49;3.50;;;2.10;;
16286;SDS011;8251;53.568;10.018;2022-09-09T10:05:18;13.50;;;3.00;;
16286;SDS011;8251;53.568;10.018;2022-09-09T10:07:46;12.17;;;1.90;;
16286;SDS011;8251;53.568;10.018;2022-09-09T10:10:29;8.32;;;1.98;;
16286;SDS011;8251;53.568;10.018;2022-09-09T10:13:08;2.57;;;1.60;;
16286;SDS011;8251;53.568;10.018;2022-09-09T10:15:44;3.60;;;1.60;;
16286;SDS011;8251;53.568;10.018;2022-09-09T10:18:24;2.90;;;1.42;;
16286;SDS011;8251;53.568;10.018;2022-09-09T10:21:03;5.65;;;2.33;;
16286;SDS011;8251;53.568;10.018;2022-09-09T10:23:49;5.55;;;1.52;;
16286;SDS011;8251;53.568;10.018;2022-09-09T10:26:34;15.40;;;9.25;;
16286;SDS011;8251;53.568;10.018;2022-09-09T10:29:21;3.72;;;2.30;;
16286;SDS011;8251;53.568;10.018;2022-09-09T10:32:01;2.03;;;1.30;;
16286;SDS011;8251;53.568;10.018;2022-09-09T10:34:55;3.88;;;1.20;;
16286;SDS011;8251;53.568;10.018;2022-09-09T10:37:33;5.07;;;1.15;;
16286;SDS011;8251;53.568;10.018;2022-09-09T10:40:22;2.72;;;1.33;;
16286;SDS011;8251;53.568;10.018;2022-09-09T10:43:01;2.47;;;1.27;;
16286;SDS011;8251;53.568;10.018;2022-09-09T10:45:39;4.20;;;1.70;;
16286;SDS011;8251;53.568;10.018;2022-09-09T10:48:18;1.55;;;1.10;;
16286;SDS011;8251;53.568;10.018;2022-09-09T10:50:57;1.95;;;1.75;;
16286;SDS011;8251;53.568;10.018;2022-09-09T10:53:40;2.25;;;1.38;;
16286;SDS011;8251;53.568;10.018;2022-09-09T10:56:17;6.68;;;1.60;;
16286;SDS011;8251;53.568;10.018;2022-09-09T10:58:50;2.28;;;1.45;;
16286;SDS011;8251;53.568;10.018;2022-09-09T11:01:22;4.57;;;1.08;;
16286;SDS011;8251;53.568;10.018;2022-09-09T11:03:53;2.17;;;1.02;;
16286;SDS011;8251;53.568;10.018;2022-09-09T11:06:27;2.03;;;1.02;;
16286;SDS011;8251;53.568;10.018;2022-09-09T11:09:04;1.73;;;1.05;;
16286;SDS011;8251;53.568;10.018;2022-09-09T11:11:41;0.80;;;0.80;;
16286;SDS011;8251;53.568;10.018;2022-09-09T11:14:14;1.95;;;1.10;;
16286;SDS011;8251;53.568;10.018;2022-09-09T11:16:48;6.22;;;0.95;;
16286;SDS011;8251;53.568;10.018;2022-09-09T11:19:19;2.40;;;1.20;;
16286;SDS011;8251;53.568;10.018;2022-09-09T11:21:53;4.35;;;1.92;;
16286;SDS011;8251;53.568;10.018;2022-09-09T11:24:23;1.92;;;1.30;;
16286;SDS011;8251;53.568;10.018;2022-09-09T11:26:55;1.65;;;1.08;;
16286;SDS011;8251;53.568;10.018;2022-09-09T11:29:39;3.40;;;1.67;;
16286;SDS011;8251;53.568;10.018;2022-09-09T11:32:20;2.83;;;1.17;;
16286;SDS011;8251;53.568;10.018;2022-09-09T11:35:08;3.38;;;1.10;;
16286;SDS011;8251;53.568;10.018;2022-09-09T11:40:55;2.55;;;1.40;;
16286;SDS011;8251;53.568;10.018;2022-09-09T11:43:26;2.83;;;1.77;;
16286;SDS011;8251;53.568;10.018;2022-09-09T11:45:58;7.18;;;1.30;;
16286;SDS011;8251;53.568;10.018;2022-09-09T11:48:29;3.28;;;1.40;;
16286;SDS011;8251;53.568;10.018;2022-09-09T11:51:01;2.15;;;1.45;;
16286;SDS011;8251;53.568;10.018;2022-09-09T11:53:32;4.50;;;1.27;;
16286;SDS011;8251;53.568;10.018;2022-09-09T11:56:05;3.38;;;1.42;;
16286;SDS011;8251;53.568;10.018;2022-09-09T11:58:39;2.03;;;1.35;;
16286;SDS011;8251;53.568;10.018;2022-09-09T12:01:16;3.55;;;1.10;;
16286;SDS011;8251;53.568;10.018;2022-09-09T12:04:13;2.22;;;0.93;;
16286;SDS011;8251;53.568;10.018;2022-09-09T12:06:53;3.70;;;1.10;;
16286;SDS011;8251;53.568;10.018;2022-09-09T12:09:25;1.60;;;1.27;;
16286;SDS011;8251;53.568;10.018;2022-09-09T12:12:06;1.48;;;1.17;;
16286;SDS011;8251;53.568;10.018;2022-09-09T12:14:54;3.88;;;1.40;;
16286;SDS011;8251;53.568;10.018;2022-09-09T12:17:28;2.00;;;1.30;;
16286;SDS011;8251;53.568;10.018;2022-09-09T12:20:00;2.33;;;1.15;;
16286;SDS011;8251;53.568;10.018;2022-09-09T12:22:38;4.15;;;1.30;;
16286;SDS011;8251;53.568;10.018;2022-09-09T12:25:18;2.25;;;1.27;;
16286;SDS011;8251;53.568;10.018;2022-09-09T12:28:00;5.15;;;1.33;;
16286;SDS011;8251;53.568;10.018;2022-09-09T12:30:34;3.65;;;1.65;;
16286;SDS011;8251;53.568;10.018;2022-09-09T12:33:10;7.22;;;2.15;;
16286;SDS011;8251;53.568;10.018;2022-09-09T12:35:39;10.10;;;2.72;;
16286;SDS011;8251;53.568;10.018;2022-09-09T12:38:10;7.32;;;2.22;;
16286;SDS011;8251;53.568;10.018;2022-09-09T12:40:42;6.38;;;1.80;;
16286;SDS011;8251;53.568;10.018;2022-09-09T12:43:20;5.20;;;1.52;;
16286;SDS011;8251;53.568;10.018;2022-09-09T12:45:48;5.47;;;2.10;;
16286;SDS011;8251;53.568;10.018;2022-09-09T12:48:24;4.57;;;2.33;;
16286;SDS011;8251;53.568;10.018;2022-09-09T12:50:56;8.75;;;1.55;;
16286;SDS011;8251;53.568;10.018;2022-09-09T12:53:25;4.88;;;1.67;;
16286;SDS011;8251;53.568;10.018;2022-09-09T12:55:56;4.05;;;1.20;;
16286;SDS011;8251;53.568;10.018;2022-09-09T12:58:24;5.65;;;2.20;;
16286;SDS011;8251;53.568;10.018;2022-09-09T13:00:58;6.03;;;3.30;;
16286;SDS011;8251;53.568;10.018;2022-09-09T13:03:27;4.88;;;2.90;;
16286;SDS011;8251;53.568;10.018;2022-09-09T13:05:57;2.70;;;2.10;;
16286;SDS011;8251;53.568;10.018;2022-09-09T13:08:36;2.75;;;1.98;;
16286;SDS011;8251;53.568;10.018;2022-09-09T13:11:04;2.30;;;1.88;;
16286;SDS011;8251;53.568;10.018;2022-09-09T13:13:40;4.10;;;2.38;;
16286;SDS011;8251;53.568;10.018;2022-09-09T13:16:18;4.70;;;2.53;;
16286;SDS011;8251;53.568;10.018;2022-09-09T13:18:48;5.38;;;2.20;;
16286;SDS011;8251;53.568;10.018;2022-09-09T13:21:15;2.55;;;2.28;;
16286;SDS011;8251;53.568;10.018;2022-09-09T13:23:42;2.70;;;1.80;;
16286;SDS011;8251;53.568;10.018;2022-09-09T13:26:23;1.83;;;1.70;;
16286;SDS011;8251;53.568;10.018;2022-09-09T13:28:51;4.67;;;2.00;;
16286;SDS011;8251;53.568;10.018;2022-09-09T13:31:20;3.97;;;2.43;;
16286;SDS011;8251;53.568;10.018;2022-09-09T13:33:50;3.45;;;2.33;;
16286;SDS011;8251;53.568;10.018;2022-09-09T13:36:26;4.40;;;2.20;;
16286;SDS011;8251;53.568;10.018;2022-09-09T13:38:55;5.23;;;2.90;;
16286;SDS011;8251;53.568;10.018;2022-09-09T13:41:25;5.43;;;2.50;;
16286;SDS011;8251;53.568;10.018;2022-09-09T13:43:56;7.30;;;3.03;;
16286;SDS011;8251;53.568;10.018;2022-09-09T13:46:25;3.63;;;2.37;;
16286;SDS011;8251;53.568;10.018;2022-09-09T13:49:00;5.40;;;2.43;;
16286;SDS011;8251;53.568;10.018;2022-09-09T13:51:33;5.83;;;2.70;;
16286;SDS011;8251;53.568;10.018;2022-09-09T13:54:03;4.73;;;2.33;;
16286;SDS011;8251;53.568;10.018;2022-09-09T13:56:31;4.20;;;2.40;;
16286;SDS011;8251;53.568;10.018;2022-09-09T13:58:58;3.47;;;2.23;;
16286;SDS011;8251;53.568;10.018;2022-09-09T14:01:25;4.63;;;2.77;;
16286;SDS011;8251;53.568;10.018;2022-09-09T14:03:53;8.07;;;3.00;;
16286;SDS011;8251;53.568;10.018;2022-09-09T14:06:21;6.03;;;2.70;;
16286;SDS011;8251;53.568;10.018;2022-09-09T14:08:49;7.90;;;3.83;;
16286;SDS011;8251;53.568;10.018;2022-09-09T14:11:17;7.40;;;3.00;;
16286;SDS011;8251;53.568;10.018;2022-09-09T14:13:44;4.73;;;3.23;;
16286;SDS011;8251;53.568;10.018;2022-09-09T14:16:11;5.57;;;3.30;;
16286;SDS011;8251;53.568;10.018;2022-09-09T14:18:38;6.93;;;3.67;;
16286;SDS011;8251;53.568;10.018;2022-09-09T14:21:05;8.83;;;3.70;;
16286;SDS011;8251;53.568;10.018;2022-09-09T14:23:35;4.43;;;3.50;;
16286;SDS011;8251;53.568;10.018;2022-09-09T14:26:03;8.50;;;3.50;;
16286;SDS011;8251;53.568;10.018;2022-09-09T14:28:30;8.50;;;2.07;;
16286;SDS011;8251;53.568;10.018;2022-09-09T14:30:59;3.27;;;2.53;;
16286;SDS011;8251;53.568;10.018;2022-09-09T14:33:27;3.80;;;1.93;;
16286;SDS011;8251;53.568;10.018;2022-09-09T14:35:55;5.63;;;2.13;;
16286;SDS011;8251;53.568;10.018;2022-09-09T14:38:23;6.03;;;2.70;;
16286;SDS011;8251;53.568;10.018;2022-09-09T14:40:52;3.60;;;1.87;;
16286;SDS011;8251;53.568;10.018;2022-09-09T14:43:18;3.60;;;1.80;;
16286;SDS011;8251;53.568;10.018;2022-09-09T14:45:46;4.13;;;2.03;;
16286;SDS011;8251;53.568;10.018;2022-09-09T14:48:16;5.77;;;2.17;;
16286;SDS011;8251;53.568;10.018;2022-09-09T14:50:46;4.17;;;1.80;;
16286;SDS011;8251;53.568;10.018;2022-09-09T14:53:15;5.47;;;2.53;;
16286;SDS011;8251;53.568;10.018;2022-09-09T14:55:43;4.50;;;3.33;;
16286;SDS011;8251;53.568;10.018;2022-09-09T14:58:13;4.70;;;2.50;;
16286;SDS011;8251;53.568;10.018;2022-09-09T15:00:40;5.57;;;2.00;;
16286;SDS011;8251;53.568;10.018;2022-09-09T15:03:08;6.83;;;2.27;;
16286;SDS011;8251;53.568;10.018;2022-09-09T15:05:35;5.53;;;2.03;;
16286;SDS011;8251;53.568;10.018;2022-09-09T15:08:02;5.10;;;2.57;;
16286;SDS011;8251;53.568;10.018;2022-09-09T15:10:29;3.37;;;2.43;;
16286;SDS011;8251;53.568;10.018;2022-09-09T15:12:58;5.47;;;2.33;;